Taha-y — 9LD2547 — position and weather

sailwx.info

Track history (hours):
 
Tides and Currents Weather Stations Pressure Air Temp Water Temp Dewpoint Dewpoint Depression Visibility Wind Speed Wind Dir Waves Ship Positions

Taha-y

Last reported at 2017-Oct-05 02:49 UTC. Time now 2017-Oct-17 00:59 UTC.
Position N 36°02' E 030°28'.
Warning: this ship's position is 11 days out of date.

Length 170 m; draft 7.2 m.

Type: Cargo ship. MMSI: 667005247.

Date/timePositionNaut miles runAvg speedWind from/ knotsBaromVisibWave heightAir tempDewpointWater temp
2017-Oct-05 02:49N 36°02' E 030°28'23511.1
2017-Oct-04 05:35N 37°28' E 025°56'111.1
2017-Oct-04 05:30N 37°29' E 025°55'612.1
2017-Oct-04 05:00N 37°35' E 025°54'24910.0
2017-Oct-03 04:05N 40°59' E 028°59'113.4
2017-Oct-03 04:00N 40°59' E 028°59'326 8.6
2017-Oct-01 13:51N 46°15' E 030°54'410.7
2017-Oct-01 13:30N 46°19' E 030°55'611.6
2017-Oct-01 13:00N 46°24' E 030°55'611.6
2017-Oct-01 12:30N 46°30' E 030°55'21 9.5
2017-Oct-01 10:14N 46°35' E 031°25'4 9.8
2017-Oct-01 09:52N 46°35' E 031°31'410.0
2017-Oct-01 09:30N 46°35' E 031°36'611.1
2017-Oct-01 08:59N 46°36' E 031°44'510.7
2017-Oct-01 08:30N 46°37' E 031°51'5 9.9
2017-Oct-01 08:00N 46°41' E 031°56'5 9.2
2017-Oct-01 07:31N 46°45' E 031°54'4 7.9
2017-Oct-01 07:00N 46°49' E 031°54'2 4.3
2017-Oct-01 06:26N 46°50' E 031°57'0 0.0
2017-Oct-01 05:59N 46°50' E 031°57'0 0.0
2017-Oct-01 05:29N 46°50' E 031°57'0 0.0
2017-Oct-01 04:59N 46°50' E 031°57'0 0.0
2017-Oct-01 04:29N 46°50' E 031°57'0 0.0
2017-Oct-01 03:59N 46°50' E 031°57'0 0.0
2017-Oct-01 03:29N 46°50' E 031°57'0 0.0
2017-Oct-01 02:59N 46°50' E 031°57'0 0.0
2017-Sep-30 01:59N 46°50' E 031°57'0 0.0
2017-Sep-30 01:29N 46°50' E 031°57'0 0.0
2017-Sep-30 00:59N 46°50' E 031°57'0 0.0
2017-Sep-30 00:29N 46°50' E 031°57'0 0.0
2017-Sep-29 23:59N 46°50' E 031°57'0 0.0
2017-Sep-29 23:29N 46°50' E 031°57'0 0.0
2017-Sep-29 22:59N 46°50' E 031°57'0 0.0
2017-Sep-29 22:29N 46°50' E 031°57'0 0.0
2017-Sep-29 21:59N 46°50' E 031°57'0 0.0
2017-Sep-29 21:29N 46°50' E 031°57'0 0.0
2017-Sep-29 20:59N 46°50' E 031°57'0 0.0
2017-Sep-29 20:29N 46°50' E 031°57'0 0.0
2017-Sep-29 19:59N 46°50' E 031°57'0 0.0
2017-Sep-29 19:29N 46°50' E 031°57'0 0.0
2017-Sep-29 18:59N 46°50' E 031°57'0 0.0
2017-Sep-29 18:29N 46°50' E 031°57'0 0.0
2017-Sep-29 17:59N 46°50' E 031°57'0 0.0
2017-Sep-29 17:29N 46°50' E 031°57'0 0.0
2017-Sep-29 16:59N 46°50' E 031°57'0 0.0
2017-Sep-29 16:29N 46°50' E 031°57'0 0.0
2017-Sep-29 15:59N 46°50' E 031°57'0 0.0
2017-Sep-29 15:29N 46°50' E 031°57'0 0.0
2017-Sep-29 14:59N 46°50' E 031°57'0 0.0
2017-Sep-29 14:29N 46°50' E 031°57'0 0.0
2017-Sep-29 13:59N 46°50' E 031°57'0 0.0
2017-Sep-29 13:29N 46°50' E 031°57'0 0.0
2017-Sep-29 12:59N 46°50' E 031°57'0 0.0
2017-Sep-29 12:29N 46°50' E 031°57'0 0.0
2017-Sep-29 11:59N 46°50' E 031°57'0 0.0
2017-Sep-29 11:29N 46°50' E 031°57'0 0.0
2017-Sep-29 10:59N 46°50' E 031°57'0 0.0
2017-Sep-29 10:29N 46°50' E 031°57'0 0.0
2017-Sep-29 09:59N 46°50' E 031°57'0 0.0
2017-Sep-29 09:29N 46°50' E 031°57'0 0.0
2017-Sep-29 08:59N 46°50' E 031°57'0 0.0
2017-Sep-29 08:29N 46°50' E 031°57'0 0.0
2017-Sep-29 07:59N 46°50' E 031°57'0 0.0
2017-Sep-29 07:29N 46°50' E 031°57'0 0.0
2017-Sep-29 06:59N 46°50' E 031°57'0 0.0
2017-Sep-29 06:29N 46°50' E 031°57'0 0.0
2017-Sep-29 05:59N 46°50' E 031°57'0 0.0
2017-Sep-29 05:29N 46°50' E 031°57'0 0.0
2017-Sep-29 04:59N 46°50' E 031°57'0 0.0
2017-Sep-29 04:29N 46°50' E 031°57'0 0.0
2017-Sep-29 03:56N 46°50' E 031°57'0 0.0
2017-Sep-29 03:29N 46°50' E 031°57'0 0.0
2017-Sep-29 02:59N 46°50' E 031°57'0 0.0
2017-Sep-29 02:29N 46°50' E 031°57'0 0.0
2017-Sep-29 01:56N 46°50' E 031°57'0 0.0
2017-Sep-29 01:20N 46°50' E 031°57'0 0.0
2017-Sep-29 00:59N 46°50' E 031°57'0 0.0
2017-Sep-29 00:26N 46°50' E 031°57'0 0.0
2017-Sep-28 23:59N 46°50' E 031°57'0 0.0
2017-Sep-28 23:29N 46°50' E 031°57'0 0.0
2017-Sep-28 22:59N 46°50' E 031°57'0 0.0
2017-Sep-28 22:26N 46°50' E 031°57'0 0.0
2017-Sep-28 21:59N 46°50' E 031°57'0 0.0
2017-Sep-28 21:29N 46°50' E 031°57'0 0.0
2017-Sep-28 20:59N 46°50' E 031°57'0 0.0
2017-Sep-28 20:29N 46°50' E 031°57'0 0.0
2017-Sep-28 19:59N 46°50' E 031°57'0 0.0
2017-Sep-28 19:29N 46°50' E 031°57'0 0.0
2017-Sep-28 18:59N 46°50' E 031°57'0 0.0
2017-Sep-28 18:29N 46°50' E 031°57'0 0.0
2017-Sep-28 17:59N 46°50' E 031°57'0 0.0
2017-Sep-28 17:29N 46°50' E 031°57'0 0.0
2017-Sep-28 16:59N 46°50' E 031°57'0 0.0
2017-Sep-28 16:29N 46°50' E 031°57'0 0.0
2017-Sep-28 15:59N 46°50' E 031°57'0 0.0
2017-Sep-28 15:29N 46°50' E 031°57'0 0.0
2017-Sep-28 14:59N 46°50' E 031°57'0 0.0
2017-Sep-28 14:29N 46°50' E 031°57'0 0.0
2017-Sep-28 13:59N 46°50' E 031°57'0 0.0
2017-Sep-28 13:29N 46°50' E 031°57'0 0.0
2017-Sep-28 12:59N 46°50' E 031°57'0 0.0
2017-Sep-28 12:29N 46°50' E 031°57'0 0.0
2017-Sep-28 11:59N 46°50' E 031°57'0 0.0
2017-Sep-28 11:29N 46°50' E 031°57'0 0.0
2017-Sep-28 10:59N 46°50' E 031°57'0 0.0
2017-Sep-28 10:29N 46°50' E 031°57'0 0.0
2017-Sep-28 09:59N 46°50' E 031°57'0 0.0
2017-Sep-28 09:29N 46°50' E 031°57'0 0.0
2017-Sep-28 08:59N 46°50' E 031°57'0 0.0
2017-Sep-28 08:29N 46°50' E 031°57'0 0.0
2017-Sep-28 07:59N 46°50' E 031°57'0 0.0
2017-Sep-28 07:29N 46°50' E 031°57'0 0.0
2017-Sep-28 06:59N 46°50' E 031°57'0 0.0
2017-Sep-28 06:29N 46°50' E 031°57'0 0.0
2017-Sep-28 05:59N 46°50' E 031°57'0 0.0
2017-Sep-28 05:29N 46°50' E 031°57'0 0.0
2017-Sep-28 04:59N 46°50' E 031°57'0 0.0
2017-Sep-28 04:29N 46°50' E 031°57'0 0.0
2017-Sep-28 03:59N 46°50' E 031°57'0 0.0
2017-Sep-28 03:29N 46°50' E 031°57'0 0.0
2017-Sep-28 02:59N 46°50' E 031°57'0 0.0
2017-Sep-28 02:29N 46°50' E 031°57'0 0.0
2017-Sep-28 01:59N 46°50' E 031°57'0 0.0
2017-Sep-28 01:29N 46°50' E 031°57'0 0.0
2017-Sep-28 00:59N 46°50' E 031°57'0 0.0
2017-Sep-28 00:29N 46°50' E 031°57'0 0.0
2017-Sep-27 23:59N 46°50' E 031°57'0 0.0
2017-Sep-27 23:29N 46°50' E 031°57'0 0.0
2017-Sep-27 22:59N 46°50' E 031°57'0 0.0
2017-Sep-27 22:29N 46°50' E 031°57'0 0.0
2017-Sep-27 21:59N 46°50' E 031°57'0 0.0
2017-Sep-27 21:29N 46°50' E 031°57'0 0.0
2017-Sep-27 20:59N 46°50' E 031°57'0 0.0
2017-Sep-27 20:29N 46°50' E 031°57'0 0.0
2017-Sep-27 19:59N 46°50' E 031°57'0 0.0
2017-Sep-27 19:29N 46°50' E 031°57'0 0.0
2017-Sep-27 18:59N 46°50' E 031°57'0 0.0
2017-Sep-27 18:29N 46°50' E 031°57'0 0.0
2017-Sep-27 17:59N 46°50' E 031°57'0 0.0
2017-Sep-27 17:29N 46°50' E 031°57'0 0.0
2017-Sep-27 16:59N 46°50' E 031°57'0 0.0
2017-Sep-27 16:29N 46°50' E 031°57'0 0.0
2017-Sep-27 15:59N 46°50' E 031°57'0 0.0
2017-Sep-27 15:29N 46°50' E 031°57'0 0.0
2017-Sep-27 14:59N 46°50' E 031°57'0 0.0
2017-Sep-27 14:29N 46°50' E 031°57'0 0.0
2017-Sep-27 13:59N 46°50' E 031°57'0 0.0
2017-Sep-27 13:29N 46°50' E 031°57'0 0.0
2017-Sep-27 12:59N 46°50' E 031°57'0 0.0
2017-Sep-27 12:29N 46°50' E 031°57'0 0.0
2017-Sep-27 11:59N 46°50' E 031°57'0 0.0
2017-Sep-27 11:29N 46°50' E 031°57'0 0.0
2017-Sep-27 10:59N 46°50' E 031°57'0 0.0
2017-Sep-27 10:29N 46°50' E 031°57'0 0.0
2017-Sep-27 09:59N 46°50' E 031°57'0 0.0
2017-Sep-27 09:29N 46°50' E 031°57'0 0.0
2017-Sep-27 08:59N 46°50' E 031°57'0 0.0
2017-Sep-27 08:29N 46°50' E 031°57'0 0.0
2017-Sep-27 07:59N 46°50' E 031°57'0 0.0
2017-Sep-27 07:29N 46°50' E 031°57'0 0.0
2017-Sep-27 06:59N 46°50' E 031°57'0 0.0
2017-Sep-27 06:29N 46°50' E 031°57'0 0.0
2017-Sep-27 05:59N 46°50' E 031°57'0 0.0
2017-Sep-27 05:26N 46°50' E 031°57'0 0.0
2017-Sep-27 04:59N 46°50' E 031°57'0 0.0
2017-Sep-27 04:29N 46°50' E 031°57'0 0.0
2017-Sep-27 03:59N 46°50' E 031°57'0 0.0
2017-Sep-27 03:29N 46°50' E 031°57'0 0.0
2017-Sep-27 02:59N 46°50' E 031°57'0 0.0
2017-Sep-27 02:29N 46°50' E 031°57'0 0.0
2017-Sep-27 01:59N 46°50' E 031°57'0 0.0
2017-Sep-27 01:29N 46°50' E 031°57'0 0.0
2017-Sep-27 00:59N 46°50' E 031°57'0 0.0
2017-Sep-27 00:29N 46°50' E 031°57'0 0.0
2017-Sep-26 23:59N 46°50' E 031°57'0 0.0
2017-Sep-26 23:29N 46°50' E 031°57'0 0.0
2017-Sep-26 22:59N 46°50' E 031°57'0 0.0
2017-Sep-26 22:29N 46°50' E 031°57'0 0.0
2017-Sep-26 21:59N 46°50' E 031°57'0 0.0
2017-Sep-26 21:29N 46°50' E 031°57'0 0.0
2017-Sep-26 20:59N 46°50' E 031°57'0 0.0
2017-Sep-26 20:29N 46°50' E 031°57'0 0.0
2017-Sep-26 19:59N 46°50' E 031°57'0 0.0
2017-Sep-26 19:29N 46°50' E 031°57'0 0.0
2017-Sep-26 18:59N 46°50' E 031°57'0 0.0
2017-Sep-26 18:29N 46°50' E 031°57'0 0.0
2017-Sep-26 17:59N 46°50' E 031°57'0 0.0
2017-Sep-26 17:29N 46°50' E 031°57'0 0.0
2017-Sep-26 16:59N 46°50' E 031°57'0 0.0
2017-Sep-26 16:29N 46°50' E 031°57'0 0.0
2017-Sep-26 15:59N 46°50' E 031°57'0 0.0
2017-Sep-26 15:29N 46°50' E 031°57'0 0.0
2017-Sep-26 14:59N 46°50' E 031°57'0 0.0
2017-Sep-26 14:29N 46°50' E 031°57'0 0.0
2017-Sep-26 13:59N 46°50' E 031°57'0 0.0
2017-Sep-26 13:29N 46°50' E 031°57'0 0.0
2017-Sep-26 12:59N 46°50' E 031°57'0 0.0
2017-Sep-26 12:29N 46°50' E 031°57'0 0.0
2017-Sep-26 11:59N 46°50' E 031°57'0 0.0
2017-Sep-26 11:29N 46°50' E 031°57'0 0.0
2017-Sep-26 10:59N 46°50' E 031°57'0 0.0
2017-Sep-26 10:29N 46°50' E 031°57'0 0.0
2017-Sep-26 09:59N 46°50' E 031°57'0 0.0
2017-Sep-26 09:29N 46°50' E 031°57'0 0.0
2017-Sep-26 08:59N 46°50' E 031°57'0 0.0
2017-Sep-26 08:29N 46°50' E 031°57'0 0.0
2017-Sep-26 07:59N 46°50' E 031°57'0 0.0
2017-Sep-26 07:29N 46°50' E 031°57'0 0.0
2017-Sep-26 06:59N 46°50' E 031°57'0 0.0
2017-Sep-26 06:29N 46°50' E 031°57'0 0.0
2017-Sep-26 05:59N 46°50' E 031°57'0 0.0
2017-Sep-26 05:29N 46°50' E 031°57'0 0.0
2017-Sep-26 04:59N 46°50' E 031°57'0 0.0
2017-Sep-26 04:29N 46°50' E 031°57'0 0.0
2017-Sep-26 03:59N 46°50' E 031°57'0 0.0
2017-Sep-26 03:29N 46°50' E 031°57'0 0.0
2017-Sep-26 02:59N 46°50' E 031°57'0 0.0
2017-Sep-26 02:29N 46°50' E 031°57'0 0.0
2017-Sep-26 01:59N 46°50' E 031°57'0 0.0
2017-Sep-26 01:29N 46°50' E 031°57'0 0.0
2017-Sep-26 00:59N 46°50' E 031°57'0 0.0
2017-Sep-26 00:29N 46°50' E 031°57'0 0.0
2017-Sep-25 23:59N 46°50' E 031°57'0 0.0
2017-Sep-25 23:29N 46°50' E 031°57'0 0.0
2017-Sep-25 22:59N 46°50' E 031°57'0 0.0
2017-Sep-25 22:29N 46°50' E 031°57'0 0.0
2017-Sep-25 21:59N 46°50' E 031°57'0 0.0
2017-Sep-25 21:29N 46°50' E 031°57'0 0.0
2017-Sep-25 20:59N 46°50' E 031°57'0 0.0
2017-Sep-25 20:29N 46°50' E 031°57'0 0.0
2017-Sep-25 19:59N 46°50' E 031°57'0 0.0
2017-Sep-25 19:29N 46°50' E 031°57'0 0.0
2017-Sep-25 18:59N 46°50' E 031°57'0 0.0
2017-Sep-25 18:29N 46°50' E 031°57'0 0.0
2017-Sep-25 17:59N 46°50' E 031°57'0 0.0
2017-Sep-25 17:26N 46°50' E 031°57'0 0.0
2017-Sep-25 16:59N 46°50' E 031°57'0 0.0
2017-Sep-25 16:29N 46°50' E 031°57'0 0.0
2017-Sep-25 15:59N 46°50' E 031°57'0 0.0
2017-Sep-25 15:29N 46°50' E 031°57'0 0.0
2017-Sep-25 14:59N 46°50' E 031°57'0 0.0
2017-Sep-25 14:29N 46°50' E 031°57'0 0.0
2017-Sep-25 13:59N 46°50' E 031°57'0 0.0
2017-Sep-25 13:29N 46°50' E 031°57'0 0.0
2017-Sep-25 12:59N 46°50' E 031°57'0 0.0
2017-Sep-25 12:29N 46°50' E 031°57'0 0.0
2017-Sep-25 11:59N 46°50' E 031°57'0 0.0
2017-Sep-25 11:30N 46°50' E 031°57'1 2.0
2017-Sep-25 11:00N 46°50' E 031°56'0 0.2
2017-Sep-25 10:29N 46°50' E 031°56'0 0.0
2017-Sep-25 09:59N 46°50' E 031°56'0 0.0
2017-Sep-25 09:29N 46°50' E 031°56'2 3.2
2017-Sep-25 09:00N 46°49' E 031°54'5 9.4
2017-Sep-25 08:30N 46°44' E 031°55'510.4
2017-Sep-25 08:00N 46°39' E 031°56'611.1
2017-Sep-25 07:31N 46°36' E 031°49'611.0
2017-Sep-25 07:00N 46°36' E 031°41'611.1
2017-Sep-25 06:30N 46°35' E 031°33'5 9.5
2017-Sep-25 05:57N 46°35' E 031°25'3 7.5
2017-Sep-25 05:30N 46°35' E 031°21'2 4.8
2017-Sep-25 05:00N 46°35' E 031°17'2 4.7
2017-Sep-25 04:30N 46°35' E 031°14'4 7.0
2017-Sep-25 04:00N 46°35' E 031°09'5 8.3
2017-Sep-25 03:26N 46°34' E 031°02'3 6.8
2017-Sep-25 03:00N 46°33' E 030°58'  
Track history (hours):
 
Tides and Currents Weather Stations Pressure Air Temp Water Temp Dewpoint Dewpoint Depression Visibility Wind Speed Wind Dir Waves Ship Positions

Taha-y

Last reported at 2017-Oct-05 02:49 UTC. Time now 2017-Oct-17 00:59 UTC.
Position N 36°02' E 030°28'.
Warning: this ship's position is 11 days out of date.

Length 170 m; draft 7.2 m.

Type: Cargo ship. MMSI: 667005247.

Date/timePositionNaut miles runAvg speedWind from/ knotsBaromVisibWave heightAir tempDewpointWater temp
2017-Oct-05 02:49N 36°02' E 030°28'23511.1
2017-Oct-04 05:35N 37°28' E 025°56'111.1
2017-Oct-04 05:30N 37°29' E 025°55'612.1
2017-Oct-04 05:00N 37°35' E 025°54'24910.0
2017-Oct-03 04:05N 40°59' E 028°59'113.4
2017-Oct-03 04:00N 40°59' E 028°59'326 8.6
2017-Oct-01 13:51N 46°15' E 030°54'410.7
2017-Oct-01 13:30N 46°19' E 030°55'611.6
2017-Oct-01 13:00N 46°24' E 030°55'611.6
2017-Oct-01 12:30N 46°30' E 030°55'21 9.5
2017-Oct-01 10:14N 46°35' E 031°25'4 9.8
2017-Oct-01 09:52N 46°35' E 031°31'410.0
2017-Oct-01 09:30N 46°35' E 031°36'611.1
2017-Oct-01 08:59N 46°36' E 031°44'510.7
2017-Oct-01 08:30N 46°37' E 031°51'5 9.9
2017-Oct-01 08:00N 46°41' E 031°56'5 9.2
2017-Oct-01 07:31N 46°45' E 031°54'4 7.9
2017-Oct-01 07:00N 46°49' E 031°54'2 4.3
2017-Oct-01 06:26N 46°50' E 031°57'0 0.0
2017-Oct-01 05:59N 46°50' E 031°57'0 0.0
2017-Oct-01 05:29N 46°50' E 031°57'0 0.0
2017-Oct-01 04:59N 46°50' E 031°57'0 0.0
2017-Oct-01 04:29N 46°50' E 031°57'0 0.0
2017-Oct-01 03:59N 46°50' E 031°57'0 0.0
2017-Oct-01 03:29N 46°50' E 031°57'0 0.0
2017-Oct-01 02:59N 46°50' E 031°57'0 0.0
2017-Sep-30 01:59N 46°50' E 031°57'0 0.0
2017-Sep-30 01:29N 46°50' E 031°57'0 0.0
2017-Sep-30 00:59N 46°50' E 031°57'0 0.0
2017-Sep-30 00:29N 46°50' E 031°57'0 0.0
2017-Sep-29 23:59N 46°50' E 031°57'0 0.0
2017-Sep-29 23:29N 46°50' E 031°57'0 0.0
2017-Sep-29 22:59N 46°50' E 031°57'0 0.0
2017-Sep-29 22:29N 46°50' E 031°57'0 0.0
2017-Sep-29 21:59N 46°50' E 031°57'0 0.0
2017-Sep-29 21:29N 46°50' E 031°57'0 0.0
2017-Sep-29 20:59N 46°50' E 031°57'0 0.0
2017-Sep-29 20:29N 46°50' E 031°57'0 0.0
2017-Sep-29 19:59N 46°50' E 031°57'0 0.0
2017-Sep-29 19:29N 46°50' E 031°57'0 0.0
2017-Sep-29 18:59N 46°50' E 031°57'0 0.0
2017-Sep-29 18:29N 46°50' E 031°57'0 0.0
2017-Sep-29 17:59N 46°50' E 031°57'0 0.0
2017-Sep-29 17:29N 46°50' E 031°57'0 0.0
2017-Sep-29 16:59N 46°50' E 031°57'0 0.0
2017-Sep-29 16:29N 46°50' E 031°57'0 0.0
2017-Sep-29 15:59N 46°50' E 031°57'0 0.0
2017-Sep-29 15:29N 46°50' E 031°57'0 0.0
2017-Sep-29 14:59N 46°50' E 031°57'0 0.0
2017-Sep-29 14:29N 46°50' E 031°57'0 0.0
2017-Sep-29 13:59N 46°50' E 031°57'0 0.0
2017-Sep-29 13:29N 46°50' E 031°57'0 0.0
2017-Sep-29 12:59N 46°50' E 031°57'0 0.0
2017-Sep-29 12:29N 46°50' E 031°57'0 0.0
2017-Sep-29 11:59N 46°50' E 031°57'0 0.0
2017-Sep-29 11:29N 46°50' E 031°57'0 0.0
2017-Sep-29 10:59N 46°50' E 031°57'0 0.0
2017-Sep-29 10:29N 46°50' E 031°57'0 0.0
2017-Sep-29 09:59N 46°50' E 031°57'0 0.0
2017-Sep-29 09:29N 46°50' E 031°57'0 0.0
2017-Sep-29 08:59N 46°50' E 031°57'0 0.0
2017-Sep-29 08:29N 46°50' E 031°57'0 0.0
2017-Sep-29 07:59N 46°50' E 031°57'0 0.0
2017-Sep-29 07:29N 46°50' E 031°57'0 0.0
2017-Sep-29 06:59N 46°50' E 031°57'0 0.0
2017-Sep-29 06:29N 46°50' E 031°57'0 0.0
2017-Sep-29 05:59N 46°50' E 031°57'0 0.0
2017-Sep-29 05:29N 46°50' E 031°57'0 0.0
2017-Sep-29 04:59N 46°50' E 031°57'0 0.0
2017-Sep-29 04:29N 46°50' E 031°57'0 0.0
2017-Sep-29 03:56N 46°50' E 031°57'0 0.0
2017-Sep-29 03:29N 46°50' E 031°57'0 0.0
2017-Sep-29 02:59N 46°50' E 031°57'0 0.0
2017-Sep-29 02:29N 46°50' E 031°57'0 0.0
2017-Sep-29 01:56N 46°50' E 031°57'0 0.0
2017-Sep-29 01:20N 46°50' E 031°57'0 0.0
2017-Sep-29 00:59N 46°50' E 031°57'0 0.0
2017-Sep-29 00:26N 46°50' E 031°57'0 0.0
2017-Sep-28 23:59N 46°50' E 031°57'0 0.0
2017-Sep-28 23:29N 46°50' E 031°57'0 0.0
2017-Sep-28 22:59N 46°50' E 031°57'0 0.0
2017-Sep-28 22:26N 46°50' E 031°57'0 0.0
2017-Sep-28 21:59N 46°50' E 031°57'0 0.0
2017-Sep-28 21:29N 46°50' E 031°57'0 0.0
2017-Sep-28 20:59N 46°50' E 031°57'0 0.0
2017-Sep-28 20:29N 46°50' E 031°57'0 0.0
2017-Sep-28 19:59N 46°50' E 031°57'0 0.0
2017-Sep-28 19:29N 46°50' E 031°57'0 0.0
2017-Sep-28 18:59N 46°50' E 031°57'0 0.0
2017-Sep-28 18:29N 46°50' E 031°57'0 0.0
2017-Sep-28 17:59N 46°50' E 031°57'0 0.0
2017-Sep-28 17:29N 46°50' E 031°57'0 0.0
2017-Sep-28 16:59N 46°50' E 031°57'0 0.0
2017-Sep-28 16:29N 46°50' E 031°57'0 0.0
2017-Sep-28 15:59N 46°50' E 031°57'0 0.0
2017-Sep-28 15:29N 46°50' E 031°57'0 0.0
2017-Sep-28 14:59N 46°50' E 031°57'0 0.0
2017-Sep-28 14:29N 46°50' E 031°57'0 0.0
2017-Sep-28 13:59N 46°50' E 031°57'0 0.0
2017-Sep-28 13:29N 46°50' E 031°57'0 0.0
2017-Sep-28 12:59N 46°50' E 031°57'0 0.0
2017-Sep-28 12:29N 46°50' E 031°57'0 0.0
2017-Sep-28 11:59N 46°50' E 031°57'0 0.0
2017-Sep-28 11:29N 46°50' E 031°57'0 0.0
2017-Sep-28 10:59N 46°50' E 031°57'0 0.0
2017-Sep-28 10:29N 46°50' E 031°57'0 0.0
2017-Sep-28 09:59N 46°50' E 031°57'0 0.0
2017-Sep-28 09:29N 46°50' E 031°57'0 0.0
2017-Sep-28 08:59N 46°50' E 031°57'0 0.0
2017-Sep-28 08:29N 46°50' E 031°57'0 0.0
2017-Sep-28 07:59N 46°50' E 031°57'0 0.0
2017-Sep-28 07:29N 46°50' E 031°57'0 0.0
2017-Sep-28 06:59N 46°50' E 031°57'0 0.0
2017-Sep-28 06:29N 46°50' E 031°57'0 0.0
2017-Sep-28 05:59N 46°50' E 031°57'0 0.0
2017-Sep-28 05:29N 46°50' E 031°57'0 0.0
2017-Sep-28 04:59N 46°50' E 031°57'0 0.0
2017-Sep-28 04:29N 46°50' E 031°57'0 0.0
2017-Sep-28 03:59N 46°50' E 031°57'0 0.0
2017-Sep-28 03:29N 46°50' E 031°57'0 0.0
2017-Sep-28 02:59N 46°50' E 031°57'0 0.0
2017-Sep-28 02:29N 46°50' E 031°57'0 0.0
2017-Sep-28 01:59N 46°50' E 031°57'0 0.0
2017-Sep-28 01:29N 46°50' E 031°57'0 0.0
2017-Sep-28 00:59N 46°50' E 031°57'0 0.0
2017-Sep-28 00:29N 46°50' E 031°57'0 0.0
2017-Sep-27 23:59N 46°50' E 031°57'0 0.0
2017-Sep-27 23:29N 46°50' E 031°57'0 0.0
2017-Sep-27 22:59N 46°50' E 031°57'0 0.0
2017-Sep-27 22:29N 46°50' E 031°57'0 0.0
2017-Sep-27 21:59N 46°50' E 031°57'0 0.0
2017-Sep-27 21:29N 46°50' E 031°57'0 0.0
2017-Sep-27 20:59N 46°50' E 031°57'0 0.0
2017-Sep-27 20:29N 46°50' E 031°57'0 0.0
2017-Sep-27 19:59N 46°50' E 031°57'0 0.0
2017-Sep-27 19:29N 46°50' E 031°57'0 0.0
2017-Sep-27 18:59N 46°50' E 031°57'0 0.0
2017-Sep-27 18:29N 46°50' E 031°57'0 0.0
2017-Sep-27 17:59N 46°50' E 031°57'0 0.0
2017-Sep-27 17:29N 46°50' E 031°57'0 0.0
2017-Sep-27 16:59N 46°50' E 031°57'0 0.0
2017-Sep-27 16:29N 46°50' E 031°57'0 0.0
2017-Sep-27 15:59N 46°50' E 031°57'0 0.0
2017-Sep-27 15:29N 46°50' E 031°57'0 0.0
2017-Sep-27 14:59N 46°50' E 031°57'0 0.0
2017-Sep-27 14:29N 46°50' E 031°57'0 0.0
2017-Sep-27 13:59N 46°50' E 031°57'0 0.0
2017-Sep-27 13:29N 46°50' E 031°57'0 0.0
2017-Sep-27 12:59N 46°50' E 031°57'0 0.0
2017-Sep-27 12:29N 46°50' E 031°57'0 0.0
2017-Sep-27 11:59N 46°50' E 031°57'0 0.0
2017-Sep-27 11:29N 46°50' E 031°57'0 0.0
2017-Sep-27 10:59N 46°50' E 031°57'0 0.0
2017-Sep-27 10:29N 46°50' E 031°57'0 0.0
2017-Sep-27 09:59N 46°50' E 031°57'0 0.0
2017-Sep-27 09:29N 46°50' E 031°57'0 0.0
2017-Sep-27 08:59N 46°50' E 031°57'0 0.0
2017-Sep-27 08:29N 46°50' E 031°57'0 0.0
2017-Sep-27 07:59N 46°50' E 031°57'0 0.0
2017-Sep-27 07:29N 46°50' E 031°57'0 0.0
2017-Sep-27 06:59N 46°50' E 031°57'0 0.0
2017-Sep-27 06:29N 46°50' E 031°57'0 0.0
2017-Sep-27 05:59N 46°50' E 031°57'0 0.0
2017-Sep-27 05:26N 46°50' E 031°57'0 0.0
2017-Sep-27 04:59N 46°50' E 031°57'0 0.0
2017-Sep-27 04:29N 46°50' E 031°57'0 0.0
2017-Sep-27 03:59N 46°50' E 031°57'0 0.0
2017-Sep-27 03:29N 46°50' E 031°57'0 0.0
2017-Sep-27 02:59N 46°50' E 031°57'0 0.0
2017-Sep-27 02:29N 46°50' E 031°57'0 0.0
2017-Sep-27 01:59N 46°50' E 031°57'0 0.0
2017-Sep-27 01:29N 46°50' E 031°57'0 0.0
2017-Sep-27 00:59N 46°50' E 031°57'0 0.0
2017-Sep-27 00:29N 46°50' E 031°57'0 0.0
2017-Sep-26 23:59N 46°50' E 031°57'0 0.0
2017-Sep-26 23:29N 46°50' E 031°57'0 0.0
2017-Sep-26 22:59N 46°50' E 031°57'0 0.0
2017-Sep-26 22:29N 46°50' E 031°57'0 0.0
2017-Sep-26 21:59N 46°50' E 031°57'0 0.0
2017-Sep-26 21:29N 46°50' E 031°57'0 0.0
2017-Sep-26 20:59N 46°50' E 031°57'0 0.0
2017-Sep-26 20:29N 46°50' E 031°57'0 0.0
2017-Sep-26 19:59N 46°50' E 031°57'0 0.0
2017-Sep-26 19:29N 46°50' E 031°57'0 0.0
2017-Sep-26 18:59N 46°50' E 031°57'0 0.0
2017-Sep-26 18:29N 46°50' E 031°57'0 0.0
2017-Sep-26 17:59N 46°50' E 031°57'0 0.0
2017-Sep-26 17:29N 46°50' E 031°57'0 0.0
2017-Sep-26 16:59N 46°50' E 031°57'0 0.0
2017-Sep-26 16:29N 46°50' E 031°57'0 0.0
2017-Sep-26 15:59N 46°50' E 031°57'0 0.0
2017-Sep-26 15:29N 46°50' E 031°57'0 0.0
2017-Sep-26 14:59N 46°50' E 031°57'0 0.0
2017-Sep-26 14:29N 46°50' E 031°57'0 0.0
2017-Sep-26 13:59N 46°50' E 031°57'0 0.0
2017-Sep-26 13:29N 46°50' E 031°57'0 0.0
2017-Sep-26 12:59N 46°50' E 031°57'0 0.0
2017-Sep-26 12:29N 46°50' E 031°57'0 0.0
2017-Sep-26 11:59N 46°50' E 031°57'0 0.0
2017-Sep-26 11:29N 46°50' E 031°57'0 0.0
2017-Sep-26 10:59N 46°50' E 031°57'0 0.0
2017-Sep-26 10:29N 46°50' E 031°57'0 0.0
2017-Sep-26 09:59N 46°50' E 031°57'0 0.0
2017-Sep-26 09:29N 46°50' E 031°57'0 0.0
2017-Sep-26 08:59N 46°50' E 031°57'0 0.0
2017-Sep-26 08:29N 46°50' E 031°57'0 0.0
2017-Sep-26 07:59N 46°50' E 031°57'0 0.0
2017-Sep-26 07:29N 46°50' E 031°57'0 0.0
2017-Sep-26 06:59N 46°50' E 031°57'0 0.0
2017-Sep-26 06:29N 46°50' E 031°57'0 0.0
2017-Sep-26 05:59N 46°50' E 031°57'0 0.0
2017-Sep-26 05:29N 46°50' E 031°57'0 0.0
2017-Sep-26 04:59N 46°50' E 031°57'0 0.0
2017-Sep-26 04:29N 46°50' E 031°57'0 0.0
2017-Sep-26 03:59N 46°50' E 031°57'0 0.0
2017-Sep-26 03:29N 46°50' E 031°57'0 0.0
2017-Sep-26 02:59N 46°50' E 031°57'0 0.0
2017-Sep-26 02:29N 46°50' E 031°57'0 0.0
2017-Sep-26 01:59N 46°50' E 031°57'0 0.0
2017-Sep-26 01:29N 46°50' E 031°57'0 0.0
2017-Sep-26 00:59N 46°50' E 031°57'0 0.0
2017-Sep-26 00:29N 46°50' E 031°57'0 0.0
2017-Sep-25 23:59N 46°50' E 031°57'0 0.0
2017-Sep-25 23:29N 46°50' E 031°57'0 0.0
2017-Sep-25 22:59N 46°50' E 031°57'0 0.0
2017-Sep-25 22:29N 46°50' E 031°57'0 0.0
2017-Sep-25 21:59N 46°50' E 031°57'0 0.0
2017-Sep-25 21:29N 46°50' E 031°57'0 0.0
2017-Sep-25 20:59N 46°50' E 031°57'0 0.0
2017-Sep-25 20:29N 46°50' E 031°57'0 0.0
2017-Sep-25 19:59N 46°50' E 031°57'0 0.0
2017-Sep-25 19:29N 46°50' E 031°57'0 0.0
2017-Sep-25 18:59N 46°50' E 031°57'0 0.0
2017-Sep-25 18:29N 46°50' E 031°57'0 0.0
2017-Sep-25 17:59N 46°50' E 031°57'0 0.0
2017-Sep-25 17:26N 46°50' E 031°57'0 0.0
2017-Sep-25 16:59N 46°50' E 031°57'0 0.0
2017-Sep-25 16:29N 46°50' E 031°57'0 0.0
2017-Sep-25 15:59N 46°50' E 031°57'0 0.0
2017-Sep-25 15:29N 46°50' E 031°57'0 0.0
2017-Sep-25 14:59N 46°50' E 031°57'0 0.0
2017-Sep-25 14:29N 46°50' E 031°57'0 0.0
2017-Sep-25 13:59N 46°50' E 031°57'0 0.0
2017-Sep-25 13:29N 46°50' E 031°57'0 0.0
2017-Sep-25 12:59N 46°50' E 031°57'0 0.0
2017-Sep-25 12:29N 46°50' E 031°57'0 0.0
2017-Sep-25 11:59N 46°50' E 031°57'0 0.0
2017-Sep-25 11:30N 46°50' E 031°57'1 2.0
2017-Sep-25 11:00N 46°50' E 031°56'0 0.2
2017-Sep-25 10:29N 46°50' E 031°56'0 0.0
2017-Sep-25 09:59N 46°50' E 031°56'0 0.0
2017-Sep-25 09:29N 46°50' E 031°56'2 3.2
2017-Sep-25 09:00N 46°49' E 031°54'5 9.4
2017-Sep-25 08:30N 46°44' E 031°55'510.4
2017-Sep-25 08:00N 46°39' E 031°56'611.1
2017-Sep-25 07:31N 46°36' E 031°49'611.0
2017-Sep-25 07:00N 46°36' E 031°41'611.1
2017-Sep-25 06:30N 46°35' E 031°33'5 9.5
2017-Sep-25 05:57N 46°35' E 031°25'3 7.5
2017-Sep-25 05:30N 46°35' E 031°21'2 4.8
2017-Sep-25 05:00N 46°35' E 031°17'2 4.7
2017-Sep-25 04:30N 46°35' E 031°14'4 7.0
2017-Sep-25 04:00N 46°35' E 031°09'5 8.3
2017-Sep-25 03:26N 46°34' E 031°02'3 6.8
2017-Sep-25 03:00N 46°33' E 030°58'  

Dump ship's entire track history